Time;durP1;ratioP1;P1;durP2;ratioP2;P2;SDS_P1;SDS_P2;PMS_P1;PMS_P2;Temp;Humidity;BMP_temperature;BMP_pressure;BME280_temperature;BME280_humidity;BME280_pressure;Samples;Min_cycle;Max_cycle;Signal;HPM_P1;HPM_P2
2021/03/22 00:01:27;;;;;;;5.53;1.20;;;;;9.70;102332.00;;;;5086745;28;20194;-76
2021/03/22 00:03:55;;;;;;;5.25;1.75;;;;;9.70;102326.00;;;;5080962;28;20624;-77
2021/03/22 00:06:22;;;;;;;6.10;1.95;;;;;9.70;102333.00;;;;5084332;28;20706;-76
2021/03/22 00:08:54;;;;;;;6.18;1.50;;;;;9.60;102344.00;;;;5086683;28;20240;-76
2021/03/22 00:11:22;;;;;;;3.88;0.98;;;;;9.60;102336.00;;;;5087040;28;20705;-76
2021/03/22 00:13:49;;;;;;;5.82;1.00;;;;;9.60;102341.00;;;;5071615;28;20237;-76
2021/03/22 00:16:16;;;;;;;1.55;0.77;;;;;9.50;102339.00;;;;5084390;28;20191;-76
2021/03/22 00:18:44;;;;;;;5.60;1.63;;;;;9.50;102332.00;;;;5068988;28;20211;-77
2021/03/22 00:21:13;;;;;;;3.75;1.23;;;;;9.40;102337.00;;;;5079940;28;20661;-76
2021/03/22 00:23:40;;;;;;;1.98;1.02;;;;;9.40;102342.00;;;;5078550;28;20194;-76
2021/03/22 00:26:08;;;;;;;8.60;1.27;;;;;9.40;102333.00;;;;5087718;28;20256;-76
2021/03/22 00:28:39;;;;;;;4.93;1.58;;;;;9.40;102332.00;;;;5088333;28;20360;-76
2021/03/22 00:31:10;;;;;;;6.65;0.98;;;;;9.30;102335.00;;;;5085424;28;20190;-76
2021/03/22 00:33:37;;;;;;;4.47;1.40;;;;;9.30;102331.00;;;;5086704;28;20210;-76
2021/03/22 00:36:05;;;;;;;4.90;1.30;;;;;9.30;102330.00;;;;5086751;28;20222;-76
2021/03/22 00:38:33;;;;;;;4.22;1.25;;;;;9.20;102330.00;;;;5087698;28;20198;-76
2021/03/22 00:41:00;;;;;;;3.45;0.90;;;;;9.20;102330.00;;;;5082067;28;20207;-76
2021/03/22 00:43:27;;;;;;;3.03;1.13;;;;;9.20;102319.00;;;;5087481;28;20190;-76
2021/03/22 00:45:56;;;;;;;5.57;0.70;;;;;9.20;102323.00;;;;5085012;28;20198;-76
2021/03/22 00:48:23;;;;;;;4.20;1.35;;;;;9.10;102316.00;;;;5087159;28;20230;-76
2021/03/22 00:50:50;;;;;;;4.40;0.93;;;;;9.10;102326.00;;;;5084452;28;20198;-76
2021/03/22 00:53:17;;;;;;;3.80;1.13;;;;;9.00;102321.00;;;;5087060;28;20233;-76
2021/03/22 00:55:45;;;;;;;2.30;1.00;;;;;9.00;102326.00;;;;5083477;28;20198;-76
2021/03/22 00:58:13;;;;;;;3.88;1.20;;;;;9.00;102323.00;;;;5086992;28;20194;-76
2021/03/22 01:00:42;;;;;;;4.90;1.45;;;;;8.90;102319.00;;;;5086312;28;20714;-76
2021/03/22 01:03:11;;;;;;;4.70;1.13;;;;;8.90;102318.00;;;;5086417;28;20198;-76
2021/03/22 01:05:38;;;;;;;4.10;1.00;;;;;8.90;102321.00;;;;5085119;28;20198;-76
2021/03/22 01:08:05;;;;;;;4.97;1.02;;;;;8.90;102322.00;;;;5080997;28;20604;-76
2021/03/22 01:10:37;;;;;;;6.00;1.52;;;;;8.80;102318.00;;;;5069844;28;20201;-76
2021/03/22 01:13:07;;;;;;;1.77;0.85;;;;;8.80;102313.00;;;;5068345;28;20203;-76
2021/03/22 01:15:33;;;;;;;7.78;1.40;;;;;8.80;102307.00;;;;5076565;28;20226;-77
2021/03/22 01:18:00;;;;;;;5.88;1.23;;;;;8.70;102305.00;;;;5086955;28;20205;-76
2021/03/22 01:20:30;;;;;;;3.97;1.40;;;;;8.70;102308.00;;;;5087208;28;20210;-76
2021/03/22 01:22:57;;;;;;;9.85;1.75;;;;;8.70;102309.00;;;;5086998;28;20202;-76
2021/03/22 01:25:24;;;;;;;5.88;1.35;;;;;8.60;102307.00;;;;5085871;28;20209;-76
2021/03/22 01:27:51;;;;;;;6.85;1.27;;;;;8.60;102304.00;;;;5067685;28;20207;-76
2021/03/22 01:30:22;;;;;;;6.05;1.75;;;;;8.50;102304.00;;;;5077824;28;20194;-76
2021/03/22 01:32:49;;;;;;;11.82;1.73;;;;;8.50;102294.00;;;;5073039;28;20244;-76
2021/03/22 01:35:16;;;;;;;5.90;1.38;;;;;8.50;102298.00;;;;5080488;28;20219;-76
2021/03/22 01:37:44;;;;;;;3.83;1.70;;;;;8.50;102293.00;;;;5083792;28;20190;-76
2021/03/22 01:40:26;;;;;;;5.05;1.17;;;;;8.40;102283.00;;;;5086097;28;20202;-76
2021/03/22 01:43:02;;;;;;;4.95;1.40;;;;;8.40;102277.00;;;;5085967;28;20220;-76
2021/03/22 01:45:30;;;;;;;3.00;1.13;;;;;8.40;102269.00;;;;5086390;28;20198;-76
2021/03/22 01:47:57;;;;;;;6.65;1.55;;;;;8.40;102277.00;;;;5087379;28;20610;-76
2021/03/22 01:50:27;;;;;;;4.28;1.67;;;;;8.30;102270.00;;;;5084507;28;20680;-76
2021/03/22 01:52:57;;;;;;;2.28;0.98;;;;;8.30;102269.00;;;;5080271;28;20199;-76
2021/03/22 01:55:26;;;;;;;8.10;1.48;;;;;8.30;102272.00;;;;5085189;28;20214;-76
2021/03/22 01:57:52;;;;;;;4.70;1.42;;;;;8.30;102262.00;;;;5084259;28;20206;-76
2021/03/22 02:00:28;;;;;;;2.42;1.08;;;;;8.20;102267.00;;;;5070061;28;20271;-76
2021/03/22 02:03:01;;;;;;;5.47;1.42;;;;;8.20;102267.00;;;;5071882;28;20592;-76
2021/03/22 02:05:30;;;;;;;6.85;1.30;;;;;8.20;102262.00;;;;5077493;28;20199;-76
2021/03/22 02:08:03;;;;;;;4.40;1.17;;;;;8.10;102266.00;;;;5084559;28;20255;-76
2021/03/22 02:10:31;;;;;;;5.60;1.35;;;;;8.20;102265.00;;;;5086961;28;20194;-76
2021/03/22 02:12:58;;;;;;;3.25;1.05;;;;;8.10;102263.00;;;;5088710;28;20198;-76
2021/03/22 02:15:25;;;;;;;5.05;1.58;;;;;8.10;102251.00;;;;5088485;28;20366;-76
2021/03/22 02:18:07;;;;;;;3.75;1.30;;;;;8.10;102265.00;;;;5080612;28;20202;-76
2021/03/22 02:21:01;;;;;;;4.03;1.30;;;;;8.10;102260.00;;;;5074246;28;20190;-76
2021/03/22 02:24:07;;;;;;;2.35;1.17;;;;;8.10;102260.00;;;;5090439;28;20232;-76
2021/03/22 02:27:08;;;;;;;7.20;1.80;;;;;8.10;102259.00;;;;5077130;28;20194;-76
2021/03/22 02:29:49;;;;;;;4.35;1.33;;;;;8.20;102258.00;;;;5063654;28;20191;-76
2021/03/22 02:32:36;;;;;;;7.97;1.40;;;;;8.20;102253.00;;;;5075985;28;20568;-76
2021/03/22 02:35:16;;;;;;;7.20;2.10;;;;;8.30;102255.00;;;;5075379;28;20236;-76
2021/03/22 02:37:52;;;;;;;6.35;1.70;;;;;8.40;102254.00;;;;5073399;28;20202;-76
2021/03/22 02:40:31;;;;;;;4.40;1.90;;;;;8.40;102253.00;;;;5085634;28;20222;-76
2021/03/22 02:42:59;;;;;;;6.05;2.00;;;;;8.60;102254.00;;;;5081279;28;20205;-76
2021/03/22 02:45:29;;;;;;;7.20;2.25;;;;;8.60;102248.00;;;;5083613;28;20731;-76
2021/03/22 02:47:58;;;;;;;6.43;2.53;;;;;8.70;102254.00;;;;5071046;28;20297;-76
2021/03/22 02:50:31;;;;;;;7.32;1.88;;;;;8.80;102254.00;;;;5081232;28;20555;-76
2021/03/22 02:53:32;;;;;;;4.63;1.48;;;;;8.80;102254.00;;;;5082635;28;20186;-76
2021/03/22 02:56:09;;;;;;;4.45;1.98;;;;;8.90;102252.00;;;;5082088;28;20205;-77
2021/03/22 02:58:45;;;;;;;5.13;2.03;;;;;8.90;102246.00;;;;5089075;28;20202;-76
2021/03/22 03:01:17;;;;;;;6.05;1.73;;;;;9.00;102251.00;;;;5087764;28;20240;-76
2021/03/22 03:03:45;;;;;;;7.22;2.65;;;;;9.10;102254.00;;;;5087082;28;20197;-76
2021/03/22 03:06:13;;;;;;;6.38;2.13;;;;;9.20;102250.00;;;;5088216;28;20251;-76
2021/03/22 03:08:42;;;;;;;3.53;1.83;;;;;9.30;102243.00;;;;5078443;28;20202;-76
2021/03/22 03:11:09;;;;;;;15.23;2.58;;;;;9.30;102249.00;;;;5088031;28;20285;-76
2021/03/22 03:13:37;;;;;;;4.97;1.23;;;;;9.40;102260.00;;;;5082414;28;20214;-76
2021/03/22 03:16:05;;;;;;;8.00;2.33;;;;;9.40;102254.00;;;;5087894;28;20194;-76
2021/03/22 03:18:32;;;;;;;3.55;1.70;;;;;9.50;102256.00;;;;5076980;28;20592;-76
2021/03/22 03:20:59;;;;;;;8.25;1.80;;;;;9.60;102261.00;;;;5075753;28;20191;-76
2021/03/22 03:23:28;;;;;;;7.68;2.15;;;;;9.60;102255.00;;;;5075370;28;20688;-76
2021/03/22 03:25:55;;;;;;;9.18;1.65;;;;;9.70;102254.00;;;;5075068;28;20248;-76
2021/03/22 03:28:22;;;;;;;11.15;2.80;;;;;9.80;102257.00;;;;5078263;28;20248;-76
2021/03/22 03:30:49;;;;;;;5.93;2.10;;;;;9.80;102251.00;;;;5075383;28;20199;-76
2021/03/22 03:33:16;;;;;;;6.35;2.20;;;;;9.90;102252.00;;;;5076223;28;20194;-76
2021/03/22 03:35:44;;;;;;;7.15;1.80;;;;;9.90;102253.00;;;;5077976;28;20230;-76
2021/03/22 03:38:12;;;;;;;7.57;2.42;;;;;9.90;102261.00;;;;5085478;28;20251;-76
2021/03/22 03:40:42;;;;;;;5.93;2.20;;;;;9.90;102258.00;;;;5087262;28;20218;-76
2021/03/22 03:43:10;;;;;;;8.70;2.28;;;;;10.00;102271.00;;;;5075790;28;20195;-76
2021/03/22 03:45:42;;;;;;;6.63;2.13;;;;;10.00;102265.00;;;;5068556;28;20202;-76
2021/03/22 03:48:11;;;;;;;8.68;1.90;;;;;10.10;102264.00;;;;5080961;28;20283;-76
2021/03/22 03:50:38;;;;;;;4.13;1.60;;;;;10.10;102266.00;;;;5078428;28;20198;-76
2021/03/22 03:53:05;;;;;;;4.55;1.70;;;;;10.20;102262.00;;;;5087990;28;20194;-76
2021/03/22 03:55:32;;;;;;;8.55;1.90;;;;;10.20;102256.00;;;;5088337;28;20223;-76
2021/03/22 03:58:01;;;;;;;7.28;1.63;;;;;10.20;102266.00;;;;5086949;28;20252;-76
2021/03/22 04:00:34;;;;;;;6.65;2.20;;;;;10.20;102271.00;;;;5089297;28;20198;-76
2021/03/22 04:03:18;;;;;;;3.75;1.73;;;;;10.20;102274.00;;;;5087656;28;20190;-76
2021/03/22 04:05:45;;;;;;;5.70;2.28;;;;;10.30;102274.00;;;;5082595;28;20198;-77
2021/03/22 04:08:13;;;;;;;6.13;2.17;;;;;10.40;102269.00;;;;5088944;28;20186;-77
2021/03/22 04:10:39;;;;;;;7.25;1.83;;;;;10.40;102268.00;;;;5073621;28;20699;-77
2021/03/22 04:13:07;;;;;;;6.47;2.17;;;;;10.40;102275.00;;;;5087179;28;20197;-77
2021/03/22 04:15:34;;;;;;;8.48;2.42;;;;;10.50;102277.00;;;;5086888;28;20235;-77
2021/03/22 04:18:00;;;;;;;6.13;2.10;;;;;10.50;102282.00;;;;5081676;28;20947;-76
2021/03/22 04:20:27;;;;;;;7.65;2.72;;;;;10.50;102283.00;;;;5068793;28;20191;-77
2021/03/22 04:22:54;;;;;;;8.88;1.52;;;;;10.60;102279.00;;;;5077806;28;20194;-77
2021/03/22 04:25:20;;;;;;;7.53;1.75;;;;;10.60;102281.00;;;;5071683;28;20209;-76
2021/03/22 04:27:47;;;;;;;9.57;1.98;;;;;10.60;102286.00;;;;5083959;28;20202;-76
2021/03/22 04:30:16;;;;;;;7.03;2.20;;;;;10.60;102289.00;;;;5088599;28;20719;-76
2021/03/22 04:32:43;;;;;;;6.40;1.55;;;;;10.60;102283.00;;;;5068856;28;20365;-76
2021/03/22 04:35:11;;;;;;;6.05;1.63;;;;;10.60;102294.00;;;;5084020;28;20214;-76
2021/03/22 04:37:38;;;;;;;8.85;2.03;;;;;10.70;102302.00;;;;5077800;28;20190;-77
2021/03/22 04:40:07;;;;;;;7.93;2.08;;;;;10.70;102298.00;;;;5085577;28;20210;-76
2021/03/22 04:42:34;;;;;;;6.95;2.13;;;;;10.70;102279.00;;;;5082817;28;20239;-76
2021/03/22 04:45:00;;;;;;;7.13;1.77;;;;;10.80;102289.00;;;;5087735;28;20205;-77
2021/03/22 04:47:28;;;;;;;7.72;2.20;;;;;10.70;102285.00;;;;5088327;28;20205;-76
2021/03/22 04:49:55;;;;;;;6.97;2.05;;;;;10.80;102296.00;;;;5074220;28;20199;-77
2021/03/22 04:52:21;;;;;;;6.60;2.30;;;;;10.80;102295.00;;;;5076678;28;20190;-76
2021/03/22 04:54:48;;;;;;;5.05;1.42;;;;;10.80;102293.00;;;;5086384;28;20217;-76
2021/03/22 04:57:24;;;;;;;10.80;2.30;;;;;10.80;102287.00;;;;5075489;28;20648;-76
2021/03/22 04:59:51;;;;;;;4.43;1.77;;;;;10.90;102289.00;;;;5083971;28;20202;-76
2021/03/22 05:02:18;;;;;;;4.40;1.70;;;;;10.90;102293.00;;;;5076661;28;20195;-76
2021/03/22 05:04:46;;;;;;;6.35;1.95;;;;;10.90;102295.00;;;;5079799;28;20194;-77
2021/03/22 05:07:13;;;;;;;7.63;1.15;;;;;11.00;102302.00;;;;5082362;28;20187;-77
2021/03/22 05:09:40;;;;;;;7.13;1.40;;;;;11.00;102294.00;;;;5082296;28;20202;-76
2021/03/22 05:12:08;;;;;;;5.57;1.38;;;;;11.00;102303.00;;;;5074799;28;20686;-76
2021/03/22 05:14:35;;;;;;;5.70;1.77;;;;;11.10;102298.00;;;;5075568;28;20221;-76
2021/03/22 05:17:03;;;;;;;8.85;1.48;;;;;11.00;102308.00;;;;5085909;28;20210;-77
2021/03/22 05:19:30;;;;;;;5.20;1.52;;;;;11.10;102304.00;;;;5086823;28;20201;-77
2021/03/22 05:21:58;;;;;;;5.72;1.73;;;;;11.10;102307.00;;;;5086287;28;20247;-77
2021/03/22 05:24:26;;;;;;;7.40;1.55;;;;;11.10;102296.00;;;;5072601;28;20198;-77
2021/03/22 05:26:53;;;;;;;7.50;1.92;;;;;11.10;102304.00;;;;5084911;28;20209;-76
2021/03/22 05:29:21;;;;;;;6.95;2.13;;;;;11.10;102307.00;;;;5087719;28;20608;-77
2021/03/22 05:31:48;;;;;;;3.55;1.42;;;;;11.10;102314.00;;;;5084992;28;20194;-77
2021/03/22 05:34:15;;;;;;;5.85;1.55;;;;;11.10;102317.00;;;;5074690;28;20214;-77
2021/03/22 05:36:42;;;;;;;4.65;2.17;;;;;11.10;102315.00;;;;5084704;28;20218;-77
2021/03/22 05:39:10;;;;;;;4.53;1.35;;;;;11.20;102327.00;;;;5076072;28;20190;-77
2021/03/22 05:41:47;;;;;;;6.50;1.80;;;;;11.10;102330.00;;;;5082218;28;20190;-76
2021/03/22 05:44:25;;;;;;;5.38;1.45;;;;;11.20;102324.00;;;;5077063;28;20200;-77
2021/03/22 05:46:57;;;;;;;6.63;1.63;;;;;11.20;102327.00;;;;5079323;28;20201;-77
2021/03/22 05:49:44;;;;;;;3.83;1.48;;;;;11.10;102331.00;;;;5077572;28;20695;-77
2021/03/22 05:52:32;;;;;;;5.75;1.75;;;;;11.20;102335.00;;;;5088205;28;20202;-77
2021/03/22 05:55:21;;;;;;;7.80;1.50;;;;;11.10;102329.00;;;;5079396;28;20218;-77
2021/03/22 05:58:06;;;;;;;3.22;1.35;;;;;11.20;102327.00;;;;5076475;28;20194;-76
2021/03/22 06:00:44;;;;;;;5.60;1.20;;;;;11.20;102331.00;;;;5086807;28;20346;-76
2021/03/22 06:03:20;;;;;;;4.93;1.40;;;;;11.30;102337.00;;;;5079247;28;20247;-77
2021/03/22 06:05:50;;;;;;;7.40;1.35;;;;;11.30;102338.00;;;;5077890;28;20194;-76
2021/03/22 06:08:27;;;;;;;3.33;1.10;;;;;11.30;102343.00;;;;5077872;28;20622;-77
2021/03/22 06:10:56;;;;;;;9.45;1.42;;;;;11.40;102339.00;;;;5086349;28;20232;-77
2021/03/22 06:13:28;;;;;;;3.92;0.77;;;;;11.30;102343.00;;;;5090129;28;20218;-76
2021/03/22 06:15:59;;;;;;;3.75;1.23;;;;;11.40;102344.00;;;;5080926;28;20681;-76
2021/03/22 06:18:31;;;;;;;6.07;1.10;;;;;11.40;102340.00;;;;5089791;28;20194;-76
2021/03/22 06:21:01;;;;;;;7.32;1.13;;;;;11.40;102334.00;;;;5074135;28;20539;-76
2021/03/22 06:23:36;;;;;;;8.20;1.48;;;;;11.40;102336.00;;;;5083978;28;20681;-76
2021/03/22 06:26:05;;;;;;;2.70;1.15;;;;;11.40;102343.00;;;;5079848;28;20203;-76
2021/03/22 06:28:38;;;;;;;3.20;1.17;;;;;11.50;102345.00;;;;5085049;28;20214;-76
2021/03/22 06:31:08;;;;;;;5.13;1.15;;;;;11.50;102334.00;;;;5079443;28;20558;-77
2021/03/22 06:33:38;;;;;;;5.78;1.00;;;;;11.50;102335.00;;;;5072449;28;20923;-76
2021/03/22 06:36:06;;;;;;;7.03;1.65;;;;;11.50;102336.00;;;;5088153;28;20230;-75
2021/03/22 06:38:33;;;;;;;5.78;1.65;;;;;11.60;102348.00;;;;5078947;28;20199;-75
2021/03/22 06:41:20;;;;;;;12.75;1.85;;;;;11.60;102345.00;;;;5080710;28;20195;-75
2021/03/22 06:43:53;;;;;;;3.65;1.13;;;;;11.60;102346.00;;;;5088763;28;20244;-76
2021/03/22 06:46:20;;;;;;;5.22;1.00;;;;;11.70;102342.00;;;;5086631;28;20206;-76
2021/03/22 06:48:57;;;;;;;3.55;0.90;;;;;11.70;102347.00;;;;5068851;28;20672;-77
2021/03/22 06:51:24;;;;;;;1.98;1.08;;;;;11.70;102354.00;;;;5083446;28;20559;-77
2021/03/22 06:53:56;;;;;;;2.75;0.88;;;;;11.80;102354.00;;;;5075967;28;20297;-78
2021/03/22 06:56:25;;;;;;;7.45;1.60;;;;;11.80;102351.00;;;;5086881;28;20195;-77
2021/03/22 06:59:11;;;;;;;5.38;1.52;;;;;11.70;102356.00;;;;5088813;28;20198;-76
2021/03/22 07:01:39;;;;;;;7.10;1.80;;;;;11.80;102352.00;;;;5070068;28;20195;-76
2021/03/22 07:04:25;;;;;;;7.70;1.35;;;;;11.80;102348.00;;;;5080030;28;20186;-76
2021/03/22 07:07:12;;;;;;;2.13;1.08;;;;;11.80;102359.00;;;;5089589;28;20194;-76
2021/03/22 07:09:42;;;;;;;2.65;0.98;;;;;11.90;102354.00;;;;5089256;28;20243;-76
2021/03/22 07:12:22;;;;;;;5.25;1.38;;;;;11.90;102354.00;;;;5083281;28;20222;-76
2021/03/22 07:14:50;;;;;;;4.57;1.30;;;;;12.00;102342.00;;;;5082238;28;20362;-76
2021/03/22 07:17:20;;;;;;;3.38;0.80;;;;;12.00;102354.00;;;;5083317;28;20198;-75
2021/03/22 07:20:06;;;;;;;6.15;1.52;;;;;12.00;102354.00;;;;5072754;28;20203;-75
2021/03/22 07:22:35;;;;;;;4.47;0.70;;;;;12.10;102353.00;;;;5081962;28;20208;-75
2021/03/22 07:25:08;;;;;;;3.60;0.73;;;;;12.10;102344.00;;;;5087248;28;20339;-76
2021/03/22 07:27:41;;;;;;;5.65;1.23;;;;;12.20;102358.00;;;;5088316;28;20197;-76
2021/03/22 07:30:26;;;;;;;2.20;0.77;;;;;12.20;102350.00;;;;5078495;28;20190;-76
2021/03/22 07:33:21;;;;;;;3.40;0.60;;;;;12.30;102353.00;;;;5083217;28;20197;-76
2021/03/22 07:36:03;;;;;;;1.45;0.50;;;;;12.30;102351.00;;;;5088519;28;20226;-76
2021/03/22 07:39:04;;;;;;;3.67;0.43;;;;;12.40;102356.00;;;;5089559;28;20210;-76
2021/03/22 07:41:40;;;;;;;1.00;0.50;;;;;12.50;102361.00;;;;5073170;28;20255;-76
2021/03/22 07:44:21;;;;;;;2.35;0.68;;;;;12.50;102364.00;;;;5074442;28;20198;-76
2021/03/22 07:47:04;;;;;;;3.70;1.33;;;;;12.60;102355.00;;;;5069206;28;20203;-76
2021/03/22 07:49:44;;;;;;;3.97;0.82;;;;;12.70;102352.00;;;;5082246;28;20222;-76
2021/03/22 07:52:24;;;;;;;6.53;0.82;;;;;12.70;102357.00;;;;5077289;28;20195;-78
2021/03/22 07:55:00;;;;;;;1.88;0.57;;;;;12.70;102363.00;;;;5085597;28;20217;-77
2021/03/22 07:57:40;;;;;;;1.88;0.68;;;;;12.70;102355.00;;;;5089038;28;20201;-76
2021/03/22 08:00:21;;;;;;;2.65;0.70;;;;;12.80;102350.00;;;;5089325;28;20202;-77
2021/03/22 08:03:23;;;;;;;3.22;0.88;;;;;12.70;102358.00;;;;5084338;28;20206;-77
2021/03/22 08:06:09;;;;;;;1.08;0.65;;;;;12.80;102356.00;;;;5084625;28;20206;-78
2021/03/22 08:08:49;;;;;;;2.03;0.57;;;;;12.80;102354.00;;;;5087388;28;20236;-78
2021/03/22 08:11:26;;;;;;;2.63;0.77;;;;;12.80;102354.00;;;;5087542;28;20664;-77
2021/03/22 08:14:03;;;;;;;2.67;0.35;;;;;12.80;102360.00;;;;5082062;28;20274;-77
2021/03/22 08:16:45;;;;;;;3.05;0.40;;;;;12.80;102358.00;;;;5087200;28;20583;-78
2021/03/22 08:19:21;;;;;;;4.07;0.60;;;;;12.90;102360.00;;;;5085024;28;20316;-78
2021/03/22 08:21:56;;;;;;;1.95;0.28;;;;;13.00;102357.00;;;;5087504;28;20255;-77
2021/03/22 08:24:29;;;;;;;0.35;0.20;;;;;13.10;102357.00;;;;5088300;28;20197;-78
2021/03/22 08:27:02;;;;;;;1.08;0.47;;;;;13.30;102356.00;;;;5073650;28;20201;-77
2021/03/22 08:29:32;;;;;;;0.73;0.43;;;;;13.40;102363.00;;;;5083624;28;20671;-77
2021/03/22 08:32:06;;;;;;;1.33;0.30;;;;;13.50;102352.00;;;;5087887;28;20202;-78
2021/03/22 08:34:41;;;;;;;0.57;0.35;;;;;13.60;102353.00;;;;5088416;28;20213;-78
2021/03/22 08:37:12;;;;;;;0.32;0.20;;;;;13.70;102354.00;;;;5087891;28;20308;-78
2021/03/22 08:39:44;;;;;;;2.00;0.40;;;;;13.80;102360.00;;;;5079694;28;20199;-78
2021/03/22 08:42:17;;;;;;;0.57;0.20;;;;;13.90;102369.00;;;;5081395;28;20206;-78
2021/03/22 08:44:49;;;;;;;0.80;0.32;;;;;13.90;102368.00;;;;5079580;28;20202;-78
2021/03/22 08:47:29;;;;;;;2.45;0.35;;;;;13.90;102368.00;;;;5078236;28;20198;-77
2021/03/22 08:49:59;;;;;;;3.22;0.28;;;;;13.90;102378.00;;;;5069832;28;20654;-77
2021/03/22 08:52:30;;;;;;;0.85;0.10;;;;;13.80;102381.00;;;;5079196;28;20664;-77
2021/03/22 08:55:02;;;;;;;0.65;0.20;;;;;13.80;102384.00;;;;5085672;28;20222;-76
2021/03/22 08:57:33;;;;;;;1.70;0.20;;;;;13.80;102387.00;;;;5085776;28;20190;-76
2021/03/22 09:00:24;;;;;;;0.77;0.20;;;;;13.70;102387.00;;;;5088212;28;20206;-77
2021/03/22 09:02:55;;;;;;;0.20;0.10;;;;;13.90;102384.00;;;;5083448;28;20202;-76
2021/03/22 09:05:25;;;;;;;0.50;0.10;;;;;13.90;102383.00;;;;5086746;28;20678;-76
2021/03/22 09:07:52;;;;;;;0.30;0.10;;;;;14.00;102378.00;;;;5083700;28;20202;-76
2021/03/22 09:10:37;;;;;;;0.40;0.25;;;;;14.00;102368.00;;;;5085560;28;20729;-76
2021/03/22 09:13:29;;;;;;;1.42;0.20;;;;;14.10;102372.00;;;;5087008;28;20703;-76
2021/03/22 09:16:15;;;;;;;1.10;0.22;;;;;14.10;102387.00;;;;5086095;28;20481;-76
2021/03/22 09:19:02;;;;;;;1.80;0.20;;;;;14.10;102385.00;;;;5081444;28;20195;-75
2021/03/22 09:21:30;;;;;;;2.50;0.38;;;;;14.20;102388.00;;;;5083942;28;21633;-76
2021/03/22 09:23:57;;;;;;;1.48;0.20;;;;;14.30;102393.00;;;;5083669;28;20203;-75
2021/03/22 09:26:59;;;;;;;1.75;0.20;;;;;14.20;102401.00;;;;5077005;28;20476;-76
2021/03/22 09:29:37;;;;;;;0.60;0.10;;;;;14.20;102394.00;;;;5075454;28;20222;-75
2021/03/22 09:32:42;;;;;;;1.02;0.40;;;;;14.10;102393.00;;;;5078474;28;20209;-76
2021/03/22 09:35:28;;;;;;;0.52;0.20;;;;;14.20;102396.00;;;;5077648;28;20222;-75
2021/03/22 09:37:59;;;;;;;1.13;0.10;;;;;14.30;102382.00;;;;5084029;28;20190;-75
2021/03/22 09:40:52;;;;;;;1.85;0.20;;;;;14.30;102389.00;;;;5086761;28;20571;-76
2021/03/22 09:43:38;;;;;;;0.60;0.17;;;;;14.40;102383.00;;;;5077867;28;20198;-76
2021/03/22 09:46:33;;;;;;;1.00;0.43;;;;;14.60;102383.00;;;;5082625;28;20220;-76
2021/03/22 09:49:32;;;;;;;0.30;0.10;;;;;14.70;102390.00;;;;5073833;28;20274;-76
2021/03/22 09:52:25;;;;;;;0.70;0.10;;;;;14.70;102387.00;;;;5033440;28;20197;-76
2021/03/22 09:54:52;;;;;;;0.45;0.10;;;;;14.90;102390.00;;;;5072967;28;20271;-75
2021/03/22 09:57:39;;;;;;;2.38;0.52;;;;;14.80;102387.00;;;;5074807;28;20195;-75
2021/03/22 10:00:54;;;;;;;0.80;0.30;;;;;14.80;102390.00;;;;5084198;28;20209;-75
2021/03/22 10:03:45;;;;;;;0.88;0.10;;;;;14.80;102385.00;;;;5085463;28;20194;-76
2021/03/22 10:06:50;;;;;;;1.50;0.10;;;;;14.80;102396.00;;;;5086759;28;20249;-75
2021/03/22 10:09:22;;;;;;;1.23;0.10;;;;;14.90;102399.00;;;;5077040;28;20695;-75
2021/03/22 10:11:51;;;;;;;2.92;0.20;;;;;14.90;102399.00;;;;5079008;28;20187;-74
2021/03/22 10:14:23;;;;;;;0.57;0.10;;;;;14.90;102400.00;;;;5084402;28;20284;-75
2021/03/22 10:16:51;;;;;;;0.15;0.03;;;;;14.90;102401.00;;;;5081467;28;20229;-74
2021/03/22 10:19:21;;;;;;;0.52;0.20;;;;;15.00;102401.00;;;;5087045;28;20532;-75
2021/03/22 10:21:50;;;;;;;0.08;0.00;;;;;15.10;102398.00;;;;5075604;28;20238;-74
2021/03/22 10:24:31;;;;;;;0.25;0.03;;;;;15.20;102400.00;;;;5085684;28;20571;-75
2021/03/22 10:27:00;;;;;;;0.25;0.03;;;;;15.40;102404.00;;;;5085117;28;20204;-74
2021/03/22 10:29:30;;;;;;;0.20;0.08;;;;;15.50;102403.00;;;;5077531;28;20195;-75
2021/03/22 10:32:07;;;;;;;0.10;0.10;;;;;15.50;102403.00;;;;5085453;28;20218;-75
2021/03/22 10:34:40;;;;;;;0.10;0.00;;;;;15.60;102394.00;;;;5089670;28;20691;-74
2021/03/22 10:37:12;;;;;;;0.15;0.10;;;;;15.60;102406.00;;;;5090751;28;20734;-74
2021/03/22 10:39:45;;;;;;;0.10;0.00;;;;;15.70;102402.00;;;;5088937;28;20213;-74
2021/03/22 10:42:23;;;;;;;0.45;0.10;;;;;15.70;102408.00;;;;5086003;28;20285;-75
2021/03/22 10:44:50;;;;;;;1.67;0.20;;;;;15.70;102411.00;;;;5089562;28;20209;-76
2021/03/22 10:47:19;;;;;;;1.85;0.10;;;;;15.70;102412.00;;;;5085619;28;20676;-76
2021/03/22 10:49:47;;;;;;;0.38;0.10;;;;;15.70;102420.00;;;;5081382;28;20347;-75
2021/03/22 10:52:26;;;;;;;0.35;0.10;;;;;15.60;102409.00;;;;5089323;28;20672;-75
2021/03/22 10:54:54;;;;;;;0.40;0.20;;;;;15.70;102412.00;;;;5081618;28;20240;-75
2021/03/22 10:57:24;;;;;;;0.40;0.17;;;;;15.70;102411.00;;;;5078517;28;20190;-75
2021/03/22 10:59:53;;;;;;;0.43;0.05;;;;;15.70;102413.00;;;;5079967;28;20244;-75
2021/03/22 11:02:32;;;;;;;0.50;0.22;;;;;15.70;102417.00;;;;5087009;28;20194;-75
2021/03/22 11:05:04;;;;;;;0.20;0.10;;;;;15.70;102416.00;;;;5088582;28;20206;-75
2021/03/22 11:07:31;;;;;;;0.25;0.10;;;;;15.70;102402.00;;;;5089544;28;20207;-75
2021/03/22 11:10:01;;;;;;;0.22;0.05;;;;;15.60;102419.00;;;;5086908;28;20201;-76
2021/03/22 11:12:29;;;;;;;0.35;0.08;;;;;15.60;102416.00;;;;5088372;28;20235;-76
2021/03/22 11:15:01;;;;;;;0.20;0.10;;;;;15.60;102405.00;;;;5084445;28;20218;-76
2021/03/22 11:17:28;;;;;;;1.20;0.10;;;;;15.70;102415.00;;;;5076568;28;20214;-76
2021/03/22 11:19:55;;;;;;;0.50;0.10;;;;;15.70;102420.00;;;;5087642;28;20194;-76
2021/03/22 11:22:33;;;;;;;0.40;0.10;;;;;15.70;102418.00;;;;5077578;28;20199;-76
2021/03/22 11:25:00;;;;;;;0.57;0.10;;;;;15.80;102414.00;;;;5079355;28;20206;-76
2021/03/22 11:27:57;;;;;;;0.10;0.10;;;;;15.70;102408.00;;;;5072394;28;20205;-76
2021/03/22 11:30:36;;;;;;;0.20;0.20;;;;;15.80;102412.00;;;;5078485;28;20667;-76
2021/03/22 11:33:14;;;;;;;0.30;0.13;;;;;15.80;102421.00;;;;5087714;28;20206;-77
2021/03/22 11:35:44;;;;;;;1.95;0.10;;;;;15.80;102419.00;;;;5085811;28;20221;-77
2021/03/22 11:38:23;;;;;;;0.05;0.03;;;;;15.80;102420.00;;;;5085435;28;20328;-77
2021/03/22 11:40:49;;;;;;;0.47;0.00;;;;;16.00;102414.00;;;;5071810;28;20206;-77
2021/03/22 11:43:29;;;;;;;0.30;0.15;;;;;15.90;102417.00;;;;5079369;28;20186;-77
2021/03/22 11:45:57;;;;;;;0.10;0.10;;;;;16.00;102423.00;;;;5087827;28;20643;-77
2021/03/22 11:48:39;;;;;;;0.50;0.10;;;;;16.00;102424.00;;;;5087829;28;20809;-77
2021/03/22 11:51:08;;;;;;;0.35;0.10;;;;;16.10;102426.00;;;;5068843;28;20883;-76
2021/03/22 11:53:57;;;;;;;0.22;0.08;;;;;16.00;102428.00;;;;5078832;28;20690;-77
2021/03/22 11:56:27;;;;;;;0.20;0.10;;;;;16.10;102426.00;;;;5086264;28;20225;-77
2021/03/22 11:59:08;;;;;;;0.43;0.08;;;;;16.00;102424.00;;;;5088739;28;20213;-77
2021/03/22 12:01:35;;;;;;;0.43;0.20;;;;;16.10;102433.00;;;;5088505;28;20190;-77
2021/03/22 12:04:16;;;;;;;1.15;0.40;;;;;16.00;102433.00;;;;5083708;28;20207;-76
2021/03/22 12:06:56;;;;;;;2.38;0.40;;;;;16.00;102428.00;;;;5086240;28;20198;-77
2021/03/22 12:09:24;;;;;;;0.10;0.10;;;;;16.10;102429.00;;;;5084600;28;20198;-77
2021/03/22 12:11:52;;;;;;;0.40;0.20;;;;;16.10;102433.00;;;;5088221;28;20252;-76
2021/03/22 12:14:19;;;;;;;0.90;0.10;;;;;16.10;102440.00;;;;5088117;28;20265;-76
2021/03/22 12:16:48;;;;;;;0.20;0.13;;;;;16.10;102435.00;;;;5082563;28;20210;-77
2021/03/22 12:19:19;;;;;;;1.40;0.30;;;;;16.10;102432.00;;;;5088989;28;20206;-77
2021/03/22 12:21:46;;;;;;;0.35;0.10;;;;;16.20;102430.00;;;;5087890;28;20198;-76
2021/03/22 12:24:14;;;;;;;0.60;0.20;;;;;16.20;102436.00;;;;5080740;28;20206;-76
2021/03/22 12:26:42;;;;;;;0.10;0.00;;;;;16.10;102440.00;;;;5087900;28;20524;-76
2021/03/22 12:29:09;;;;;;;0.82;0.40;;;;;16.10;102439.00;;;;5088588;28;20198;-77
2021/03/22 12:31:41;;;;;;;1.75;0.13;;;;;16.10;102436.00;;;;5087635;28;20297;-76
2021/03/22 12:34:12;;;;;;;0.40;0.20;;;;;16.20;102429.00;;;;5086482;28;20683;-76
2021/03/22 12:36:38;;;;;;;0.50;0.20;;;;;16.20;102440.00;;;;5084121;28;20726;-77
2021/03/22 12:39:14;;;;;;;0.15;0.15;;;;;16.20;102436.00;;;;5081787;28;20603;-76
2021/03/22 12:41:42;;;;;;;0.40;0.20;;;;;16.20;102440.00;;;;5087658;28;20194;-77